sensor_id;sensor_type;location;lat;lon;timestamp;P1;durP1;ratioP1;P2;durP2;ratioP2
59434;SDS011;45241;49.768;8.636;2023-05-10T00:00:26;1.00;;;0.80;;
59434;SDS011;45241;49.768;8.636;2023-05-10T00:02:51;1.00;;;1.00;;
59434;SDS011;45241;49.768;8.636;2023-05-10T00:05:17;1.25;;;0.98;;
59434;SDS011;45241;49.768;8.636;2023-05-10T00:07:42;1.65;;;1.00;;
59434;SDS011;45241;49.768;8.636;2023-05-10T00:10:09;4.47;;;2.08;;
59434;SDS011;45241;49.768;8.636;2023-05-10T00:12:35;1.73;;;1.00;;
59434;SDS011;45241;49.768;8.636;2023-05-10T00:15:00;1.35;;;0.95;;
59434;SDS011;45241;49.768;8.636;2023-05-10T00:17:26;3.30;;;1.00;;
59434;SDS011;45241;49.768;8.636;2023-05-10T00:19:51;4.38;;;1.00;;
59434;SDS011;45241;49.768;8.636;2023-05-10T00:22:16;3.38;;;1.00;;
59434;SDS011;45241;49.768;8.636;2023-05-10T00:24:42;1.10;;;1.00;;
59434;SDS011;45241;49.768;8.636;2023-05-10T00:27:07;1.73;;;0.93;;
59434;SDS011;45241;49.768;8.636;2023-05-10T00:29:32;2.20;;;1.08;;
59434;SDS011;45241;49.768;8.636;2023-05-10T00:31:58;3.58;;;1.20;;
59434;SDS011;45241;49.768;8.636;2023-05-10T00:34:24;1.15;;;1.05;;
59434;SDS011;45241;49.768;8.636;2023-05-10T00:36:49;1.85;;;0.95;;
59434;SDS011;45241;49.768;8.636;2023-05-10T00:39:15;1.23;;;1.13;;
59434;SDS011;45241;49.768;8.636;2023-05-10T00:41:40;2.17;;;1.17;;
59434;SDS011;45241;49.768;8.636;2023-05-10T00:44:05;2.67;;;1.20;;
59434;SDS011;45241;49.768;8.636;2023-05-10T00:46:31;1.73;;;1.25;;
59434;SDS011;45241;49.768;8.636;2023-05-10T00:48:56;1.23;;;1.10;;
59434;SDS011;45241;49.768;8.636;2023-05-10T00:51:22;1.90;;;1.38;;
59434;SDS011;45241;49.768;8.636;2023-05-10T00:53:48;4.10;;;1.30;;
59434;SDS011;45241;49.768;8.636;2023-05-10T00:56:14;2.28;;;1.38;;
59434;SDS011;45241;49.768;8.636;2023-05-10T00:58:40;2.47;;;1.70;;
59434;SDS011;45241;49.768;8.636;2023-05-10T01:01:06;3.80;;;1.30;;
59434;SDS011;45241;49.768;8.636;2023-05-10T01:03:33;3.53;;;1.63;;
59434;SDS011;45241;49.768;8.636;2023-05-10T01:05:58;3.55;;;1.20;;
59434;SDS011;45241;49.768;8.636;2023-05-10T01:08:24;3.78;;;1.25;;
59434;SDS011;45241;49.768;8.636;2023-05-10T01:10:50;2.13;;;1.30;;
59434;SDS011;45241;49.768;8.636;2023-05-10T01:13:18;3.17;;;1.20;;
59434;SDS011;45241;49.768;8.636;2023-05-10T01:15:55;1.92;;;1.50;;
59434;SDS011;45241;49.768;8.636;2023-05-10T01:18:21;1.52;;;1.42;;
59434;SDS011;45241;49.768;8.636;2023-05-10T01:20:47;1.88;;;1.25;;
59434;SDS011;45241;49.768;8.636;2023-05-10T01:34:06;3.75;;;1.90;;
59434;SDS011;45241;49.768;8.636;2023-05-10T01:36:35;1.73;;;1.63;;
59434;SDS011;45241;49.768;8.636;2023-05-10T01:44:56;2.00;;;1.67;;
59434;SDS011;45241;49.768;8.636;2023-05-10T01:47:42;1.85;;;1.67;;
59434;SDS011;45241;49.768;8.636;2023-05-10T01:50:17;1.73;;;1.40;;
59434;SDS011;45241;49.768;8.636;2023-05-10T01:52:46;3.03;;;1.60;;
59434;SDS011;45241;49.768;8.636;2023-05-10T01:55:15;3.20;;;1.50;;
59434;SDS011;45241;49.768;8.636;2023-05-10T01:57:43;1.60;;;1.50;;
59434;SDS011;45241;49.768;8.636;2023-05-10T02:00:11;2.75;;;1.50;;
59434;SDS011;45241;49.768;8.636;2023-05-10T02:02:39;1.60;;;1.50;;
59434;SDS011;45241;49.768;8.636;2023-05-10T02:05:09;2.72;;;1.63;;
59434;SDS011;45241;49.768;8.636;2023-05-10T02:07:37;2.63;;;1.52;;
59434;SDS011;45241;49.768;8.636;2023-05-10T02:10:04;1.85;;;1.48;;
59434;SDS011;45241;49.768;8.636;2023-05-10T02:12:52;2.28;;;1.58;;
59434;SDS011;45241;49.768;8.636;2023-05-10T02:15:22;5.43;;;1.75;;
59434;SDS011;45241;49.768;8.636;2023-05-10T02:17:49;1.90;;;1.70;;
59434;SDS011;45241;49.768;8.636;2023-05-10T02:20:16;2.60;;;1.52;;
59434;SDS011;45241;49.768;8.636;2023-05-10T02:22:43;2.53;;;1.98;;
59434;SDS011;45241;49.768;8.636;2023-05-10T02:25:10;3.58;;;1.80;;
59434;SDS011;45241;49.768;8.636;2023-05-10T02:27:38;2.65;;;1.75;;
59434;SDS011;45241;49.768;8.636;2023-05-10T02:30:08;3.20;;;1.70;;
59434;SDS011;45241;49.768;8.636;2023-05-10T02:32:34;3.15;;;1.95;;
59434;SDS011;45241;49.768;8.636;2023-05-10T02:35:01;2.38;;;1.98;;
59434;SDS011;45241;49.768;8.636;2023-05-10T02:37:28;2.17;;;1.85;;
59434;SDS011;45241;49.768;8.636;2023-05-10T02:39:54;2.75;;;1.80;;
59434;SDS011;45241;49.768;8.636;2023-05-10T02:42:25;2.70;;;1.95;;
59434;SDS011;45241;49.768;8.636;2023-05-10T02:44:53;5.43;;;1.83;;
59434;SDS011;45241;49.768;8.636;2023-05-10T02:47:21;2.00;;;1.85;;
59434;SDS011;45241;49.768;8.636;2023-05-10T02:49:46;2.30;;;1.67;;
59434;SDS011;45241;49.768;8.636;2023-05-10T02:52:12;3.78;;;2.10;;
59434;SDS011;45241;49.768;8.636;2023-05-10T02:54:44;3.25;;;1.83;;
59434;SDS011;45241;49.768;8.636;2023-05-10T02:57:33;4.35;;;2.10;;
59434;SDS011;45241;49.768;8.636;2023-05-10T02:59:59;3.13;;;1.90;;
59434;SDS011;45241;49.768;8.636;2023-05-10T03:02:25;2.13;;;1.67;;
59434;SDS011;45241;49.768;8.636;2023-05-10T03:04:51;5.72;;;1.95;;
59434;SDS011;45241;49.768;8.636;2023-05-10T03:07:16;3.03;;;1.98;;
59434;SDS011;45241;49.768;8.636;2023-05-10T03:09:44;4.47;;;2.03;;
59434;SDS011;45241;49.768;8.636;2023-05-10T03:20:25;2.85;;;1.65;;
59434;SDS011;45241;49.768;8.636;2023-05-10T03:23:02;2.65;;;1.77;;
59434;SDS011;45241;49.768;8.636;2023-05-10T03:25:33;3.38;;;1.73;;
59434;SDS011;45241;49.768;8.636;2023-05-10T03:28:00;2.70;;;1.88;;
59434;SDS011;45241;49.768;8.636;2023-05-10T03:30:26;3.55;;;1.67;;
59434;SDS011;45241;49.768;8.636;2023-05-10T03:32:53;2.53;;;1.88;;
59434;SDS011;45241;49.768;8.636;2023-05-10T03:35:19;3.08;;;1.65;;
59434;SDS011;45241;49.768;8.636;2023-05-10T03:37:44;2.33;;;1.67;;
59434;SDS011;45241;49.768;8.636;2023-05-10T03:40:10;3.05;;;1.73;;
59434;SDS011;45241;49.768;8.636;2023-05-10T03:42:35;2.47;;;1.90;;
59434;SDS011;45241;49.768;8.636;2023-05-10T03:45:01;3.75;;;1.88;;
59434;SDS011;45241;49.768;8.636;2023-05-10T03:47:26;2.05;;;1.85;;
59434;SDS011;45241;49.768;8.636;2023-05-10T03:49:51;4.75;;;2.05;;
59434;SDS011;45241;49.768;8.636;2023-05-10T03:52:17;2.80;;;1.92;;
59434;SDS011;45241;49.768;8.636;2023-05-10T03:54:43;3.10;;;2.00;;
59434;SDS011;45241;49.768;8.636;2023-05-10T03:57:08;2.50;;;2.10;;
59434;SDS011;45241;49.768;8.636;2023-05-10T03:59:34;2.42;;;1.67;;
59434;SDS011;45241;49.768;8.636;2023-05-10T04:02:00;2.25;;;2.05;;
59434;SDS011;45241;49.768;8.636;2023-05-10T04:04:25;2.60;;;2.40;;
59434;SDS011;45241;49.768;8.636;2023-05-10T04:06:50;3.20;;;2.20;;
59434;SDS011;45241;49.768;8.636;2023-05-10T04:09:15;4.32;;;2.50;;
59434;SDS011;45241;49.768;8.636;2023-05-10T04:11:42;3.35;;;2.50;;
59434;SDS011;45241;49.768;8.636;2023-05-10T04:14:07;3.30;;;2.50;;
59434;SDS011;45241;49.768;8.636;2023-05-10T04:16:33;4.30;;;2.60;;
59434;SDS011;45241;49.768;8.636;2023-05-10T04:18:58;6.43;;;2.78;;
59434;SDS011;45241;49.768;8.636;2023-05-10T04:21:24;3.42;;;2.50;;
59434;SDS011;45241;49.768;8.636;2023-05-10T04:23:50;4.63;;;2.33;;
59434;SDS011;45241;49.768;8.636;2023-05-10T04:26:15;4.97;;;2.70;;
59434;SDS011;45241;49.768;8.636;2023-05-10T04:28:41;3.40;;;2.13;;
59434;SDS011;45241;49.768;8.636;2023-05-10T04:31:07;3.60;;;2.13;;
59434;SDS011;45241;49.768;8.636;2023-05-10T04:33:33;3.20;;;2.42;;
59434;SDS011;45241;49.768;8.636;2023-05-10T04:35:59;3.67;;;2.55;;
59434;SDS011;45241;49.768;8.636;2023-05-10T04:38:25;3.45;;;2.20;;
59434;SDS011;45241;49.768;8.636;2023-05-10T04:40:51;2.95;;;2.33;;
59434;SDS011;45241;49.768;8.636;2023-05-10T04:43:17;4.03;;;2.20;;
59434;SDS011;45241;49.768;8.636;2023-05-10T04:45:42;4.95;;;2.50;;
59434;SDS011;45241;49.768;8.636;2023-05-10T04:48:07;3.28;;;2.25;;
59434;SDS011;45241;49.768;8.636;2023-05-10T04:50:33;4.88;;;2.50;;
59434;SDS011;45241;49.768;8.636;2023-05-10T04:52:58;4.78;;;2.80;;
59434;SDS011;45241;49.768;8.636;2023-05-10T04:55:24;4.85;;;2.22;;
59434;SDS011;45241;49.768;8.636;2023-05-10T04:57:49;7.38;;;2.42;;
59434;SDS011;45241;49.768;8.636;2023-05-10T05:00:15;3.80;;;2.30;;
59434;SDS011;45241;49.768;8.636;2023-05-10T05:02:44;4.68;;;2.50;;
59434;SDS011;45241;49.768;8.636;2023-05-10T05:05:10;2.80;;;2.47;;
59434;SDS011;45241;49.768;8.636;2023-05-10T05:07:36;2.70;;;2.25;;
59434;SDS011;45241;49.768;8.636;2023-05-10T05:10:02;3.13;;;2.47;;
59434;SDS011;45241;49.768;8.636;2023-05-10T05:12:28;3.58;;;2.25;;
59434;SDS011;45241;49.768;8.636;2023-05-10T05:14:53;5.22;;;2.42;;
59434;SDS011;45241;49.768;8.636;2023-05-10T05:17:18;4.38;;;2.55;;
59434;SDS011;45241;49.768;8.636;2023-05-10T05:19:43;4.60;;;2.50;;
59434;SDS011;45241;49.768;8.636;2023-05-10T05:22:09;2.90;;;2.60;;
59434;SDS011;45241;49.768;8.636;2023-05-10T05:24:34;4.28;;;2.30;;
59434;SDS011;45241;49.768;8.636;2023-05-10T05:27:03;3.78;;;2.42;;
59434;SDS011;45241;49.768;8.636;2023-05-10T05:29:28;4.63;;;2.53;;
59434;SDS011;45241;49.768;8.636;2023-05-10T05:31:53;5.18;;;2.78;;
59434;SDS011;45241;49.768;8.636;2023-05-10T05:34:19;2.78;;;2.50;;
59434;SDS011;45241;49.768;8.636;2023-05-10T05:36:45;4.78;;;2.70;;
59434;SDS011;45241;49.768;8.636;2023-05-10T05:39:10;3.70;;;2.75;;
59434;SDS011;45241;49.768;8.636;2023-05-10T05:41:36;4.90;;;2.90;;
59434;SDS011;45241;49.768;8.636;2023-05-10T05:44:01;3.42;;;2.65;;
59434;SDS011;45241;49.768;8.636;2023-05-10T05:46:26;7.63;;;2.72;;
59434;SDS011;45241;49.768;8.636;2023-05-10T05:48:52;6.00;;;2.40;;
59434;SDS011;45241;49.768;8.636;2023-05-10T05:51:17;5.35;;;2.78;;
59434;SDS011;45241;49.768;8.636;2023-05-10T05:53:42;4.68;;;2.60;;
59434;SDS011;45241;49.768;8.636;2023-05-10T05:56:08;3.58;;;2.70;;
59434;SDS011;45241;49.768;8.636;2023-05-10T05:58:34;3.22;;;2.78;;
59434;SDS011;45241;49.768;8.636;2023-05-10T06:00:59;4.93;;;2.33;;
59434;SDS011;45241;49.768;8.636;2023-05-10T06:03:25;4.22;;;2.13;;
59434;SDS011;45241;49.768;8.636;2023-05-10T06:05:50;4.60;;;2.55;;
59434;SDS011;45241;49.768;8.636;2023-05-10T06:08:15;5.10;;;2.72;;
59434;SDS011;45241;49.768;8.636;2023-05-10T06:10:41;4.78;;;2.38;;
59434;SDS011;45241;49.768;8.636;2023-05-10T06:13:06;5.53;;;2.78;;
59434;SDS011;45241;49.768;8.636;2023-05-10T06:15:31;4.38;;;2.40;;
59434;SDS011;45241;49.768;8.636;2023-05-10T06:17:57;4.40;;;3.08;;
59434;SDS011;45241;49.768;8.636;2023-05-10T06:20:23;4.93;;;2.95;;
59434;SDS011;45241;49.768;8.636;2023-05-10T06:22:48;5.97;;;4.05;;
59434;SDS011;45241;49.768;8.636;2023-05-10T06:25:13;4.63;;;3.30;;
59434;SDS011;45241;49.768;8.636;2023-05-10T06:27:39;4.55;;;3.22;;
59434;SDS011;45241;49.768;8.636;2023-05-10T06:30:05;5.03;;;3.30;;
59434;SDS011;45241;49.768;8.636;2023-05-10T06:32:31;5.07;;;3.13;;
59434;SDS011;45241;49.768;8.636;2023-05-10T06:34:57;6.45;;;4.00;;
59434;SDS011;45241;49.768;8.636;2023-05-10T06:37:22;5.03;;;3.50;;
59434;SDS011;45241;49.768;8.636;2023-05-10T06:39:47;3.88;;;3.33;;
59434;SDS011;45241;49.768;8.636;2023-05-10T06:42:13;4.70;;;3.47;;
59434;SDS011;45241;49.768;8.636;2023-05-10T06:44:38;4.35;;;3.80;;
59434;SDS011;45241;49.768;8.636;2023-05-10T06:47:04;5.18;;;3.25;;
59434;SDS011;45241;49.768;8.636;2023-05-10T06:49:29;6.80;;;3.65;;
59434;SDS011;45241;49.768;8.636;2023-05-10T06:51:57;5.35;;;3.88;;
59434;SDS011;45241;49.768;8.636;2023-05-10T06:54:22;5.03;;;2.95;;
59434;SDS011;45241;49.768;8.636;2023-05-10T06:56:48;4.13;;;3.65;;
59434;SDS011;45241;49.768;8.636;2023-05-10T06:59:13;40.17;;;5.60;;
59434;SDS011;45241;49.768;8.636;2023-05-10T07:01:40;7.60;;;4.30;;
59434;SDS011;45241;49.768;8.636;2023-05-10T07:04:05;10.52;;;3.92;;
59434;SDS011;45241;49.768;8.636;2023-05-10T07:06:32;6.95;;;3.67;;
59434;SDS011;45241;49.768;8.636;2023-05-10T07:08:58;7.28;;;4.10;;
59434;SDS011;45241;49.768;8.636;2023-05-10T07:11:23;6.50;;;3.90;;
59434;SDS011;45241;49.768;8.636;2023-05-10T07:13:49;6.90;;;6.10;;
59434;SDS011;45241;49.768;8.636;2023-05-10T07:16:14;5.00;;;3.67;;
59434;SDS011;45241;49.768;8.636;2023-05-10T07:18:40;8.43;;;4.95;;
59434;SDS011;45241;49.768;8.636;2023-05-10T07:21:05;4.60;;;3.30;;
59434;SDS011;45241;49.768;8.636;2023-05-10T07:23:30;4.90;;;3.55;;
59434;SDS011;45241;49.768;8.636;2023-05-10T07:25:56;5.40;;;3.38;;
59434;SDS011;45241;49.768;8.636;2023-05-10T07:28:22;4.95;;;2.92;;
59434;SDS011;45241;49.768;8.636;2023-05-10T07:30:48;5.28;;;2.85;;
59434;SDS011;45241;49.768;8.636;2023-05-10T07:33:13;5.38;;;2.80;;
59434;SDS011;45241;49.768;8.636;2023-05-10T07:35:39;4.78;;;2.67;;
59434;SDS011;45241;49.768;8.636;2023-05-10T07:38:05;2.58;;;2.33;;
59434;SDS011;45241;49.768;8.636;2023-05-10T07:40:30;3.60;;;2.28;;
59434;SDS011;45241;49.768;8.636;2023-05-10T07:42:56;4.00;;;2.72;;
59434;SDS011;45241;49.768;8.636;2023-05-10T07:45:21;2.63;;;2.38;;
59434;SDS011;45241;49.768;8.636;2023-05-10T07:47:47;2.83;;;2.60;;
59434;SDS011;45241;49.768;8.636;2023-05-10T07:50:12;2.78;;;2.42;;
59434;SDS011;45241;49.768;8.636;2023-05-10T07:52:38;3.80;;;2.40;;
59434;SDS011;45241;49.768;8.636;2023-05-10T07:55:03;2.75;;;2.50;;
59434;SDS011;45241;49.768;8.636;2023-05-10T07:57:29;5.22;;;2.70;;
59434;SDS011;45241;49.768;8.636;2023-05-10T07:59:54;4.43;;;3.05;;
59434;SDS011;45241;49.768;8.636;2023-05-10T08:02:19;6.50;;;3.75;;
59434;SDS011;45241;49.768;8.636;2023-05-10T08:04:45;4.60;;;3.88;;
59434;SDS011;45241;49.768;8.636;2023-05-10T08:07:10;35.80;;;5.65;;
59434;SDS011;45241;49.768;8.636;2023-05-10T08:09:36;7.13;;;3.83;;
59434;SDS011;45241;49.768;8.636;2023-05-10T08:12:01;4.80;;;3.72;;
59434;SDS011;45241;49.768;8.636;2023-05-10T08:14:27;5.10;;;3.67;;
59434;SDS011;45241;49.768;8.636;2023-05-10T08:16:54;5.95;;;3.83;;
59434;SDS011;45241;49.768;8.636;2023-05-10T08:19:19;4.00;;;3.60;;
59434;SDS011;45241;49.768;8.636;2023-05-10T08:21:46;4.40;;;3.47;;
59434;SDS011;45241;49.768;8.636;2023-05-10T08:24:12;6.10;;;3.30;;
59434;SDS011;45241;49.768;8.636;2023-05-10T08:26:37;4.00;;;3.45;;
59434;SDS011;45241;49.768;8.636;2023-05-10T08:29:02;3.95;;;2.83;;
59434;SDS011;45241;49.768;8.636;2023-05-10T08:31:28;4.45;;;3.40;;
59434;SDS011;45241;49.768;8.636;2023-05-10T08:33:53;4.65;;;3.03;;
59434;SDS011;45241;49.768;8.636;2023-05-10T08:36:18;3.13;;;2.65;;
59434;SDS011;45241;49.768;8.636;2023-05-10T08:38:50;4.47;;;2.40;;
59434;SDS011;45241;49.768;8.636;2023-05-10T08:41:16;9.45;;;2.47;;
59434;SDS011;45241;49.768;8.636;2023-05-10T08:43:43;31.42;;;3.25;;
59434;SDS011;45241;49.768;8.636;2023-05-10T08:46:11;5.60;;;2.40;;
59434;SDS011;45241;49.768;8.636;2023-05-10T08:48:42;4.30;;;2.10;;
59434;SDS011;45241;49.768;8.636;2023-05-10T08:51:09;4.90;;;1.80;;
59434;SDS011;45241;49.768;8.636;2023-05-10T08:53:37;1.70;;;1.60;;
59434;SDS011;45241;49.768;8.636;2023-05-10T08:56:03;4.97;;;1.60;;
59434;SDS011;45241;49.768;8.636;2023-05-10T08:58:29;2.58;;;1.70;;
59434;SDS011;45241;49.768;8.636;2023-05-10T09:00:55;1.60;;;1.50;;
59434;SDS011;45241;49.768;8.636;2023-05-10T09:03:21;2.13;;;1.30;;
59434;SDS011;45241;49.768;8.636;2023-05-10T09:05:47;2.42;;;1.25;;
59434;SDS011;45241;49.768;8.636;2023-05-10T09:08:14;1.55;;;1.20;;
59434;SDS011;45241;49.768;8.636;2023-05-10T09:10:41;3.53;;;1.15;;
59434;SDS011;45241;49.768;8.636;2023-05-10T09:13:08;2.60;;;1.20;;
59434;SDS011;45241;49.768;8.636;2023-05-10T09:15:35;1.20;;;0.90;;
59434;SDS011;45241;49.768;8.636;2023-05-10T09:18:00;1.08;;;0.82;;
59434;SDS011;45241;49.768;8.636;2023-05-10T09:20:27;2.15;;;0.85;;
59434;SDS011;45241;49.768;8.636;2023-05-10T09:22:53;3.00;;;0.90;;
59434;SDS011;45241;49.768;8.636;2023-05-10T09:25:19;2.05;;;0.80;;
59434;SDS011;45241;49.768;8.636;2023-05-10T09:27:45;2.97;;;0.73;;
59434;SDS011;45241;49.768;8.636;2023-05-10T09:30:15;2.05;;;0.90;;
59434;SDS011;45241;49.768;8.636;2023-05-10T09:32:43;2.78;;;0.90;;
59434;SDS011;45241;49.768;8.636;2023-05-10T09:35:20;0.95;;;0.88;;
59434;SDS011;45241;49.768;8.636;2023-05-10T09:37:48;4.47;;;0.90;;
59434;SDS011;45241;49.768;8.636;2023-05-10T09:42:42;2.47;;;0.80;;
59434;SDS011;45241;49.768;8.636;2023-05-10T09:45:17;58.60;;;4.20;;
59434;SDS011;45241;49.768;8.636;2023-05-10T09:47:42;1.45;;;0.68;;
59434;SDS011;45241;49.768;8.636;2023-05-10T09:50:07;3.63;;;0.70;;
59434;SDS011;45241;49.768;8.636;2023-05-10T09:55:23;2.55;;;0.60;;
59434;SDS011;45241;49.768;8.636;2023-05-10T09:57:58;1.85;;;0.50;;
59434;SDS011;45241;49.768;8.636;2023-05-10T10:00:25;1.20;;;0.60;;
59434;SDS011;45241;49.768;8.636;2023-05-10T10:02:58;3.80;;;0.70;;
59434;SDS011;45241;49.768;8.636;2023-05-10T10:05:34;1.77;;;0.52;;
59434;SDS011;45241;49.768;8.636;2023-05-10T10:08:02;1.35;;;0.60;;
59434;SDS011;45241;49.768;8.636;2023-05-10T10:10:28;0.80;;;0.60;;
59434;SDS011;45241;49.768;8.636;2023-05-10T10:12:54;1.45;;;0.60;;
59434;SDS011;45241;49.768;8.636;2023-05-10T10:15:20;1.10;;;0.50;;
59434;SDS011;45241;49.768;8.636;2023-05-10T10:17:48;1.45;;;0.60;;
59434;SDS011;45241;49.768;8.636;2023-05-10T10:20:14;1.60;;;0.50;;
59434;SDS011;45241;49.768;8.636;2023-05-10T10:22:40;0.98;;;0.60;;
59434;SDS011;45241;49.768;8.636;2023-05-10T10:25:05;1.13;;;0.50;;
59434;SDS011;45241;49.768;8.636;2023-05-10T10:32:50;1.60;;;0.60;;
59434;SDS011;45241;49.768;8.636;2023-05-10T10:35:21;1.20;;;0.50;;
59434;SDS011;45241;49.768;8.636;2023-05-10T10:37:47;0.52;;;0.50;;
59434;SDS011;45241;49.768;8.636;2023-05-10T10:40:28;1.70;;;0.75;;
59434;SDS011;45241;49.768;8.636;2023-05-10T10:42:55;2.60;;;0.90;;
59434;SDS011;45241;49.768;8.636;2023-05-10T10:45:22;1.70;;;0.60;;
59434;SDS011;45241;49.768;8.636;2023-05-10T10:47:48;4.13;;;0.90;;
59434;SDS011;45241;49.768;8.636;2023-05-10T10:50:14;2.40;;;1.40;;
59434;SDS011;45241;49.768;8.636;2023-05-10T10:52:44;1.33;;;1.20;;
59434;SDS011;45241;49.768;8.636;2023-05-10T10:55:14;2.58;;;1.55;;
59434;SDS011;45241;49.768;8.636;2023-05-10T10:57:47;3.63;;;1.40;;
59434;SDS011;45241;49.768;8.636;2023-05-10T11:00:29;2.67;;;1.40;;
59434;SDS011;45241;49.768;8.636;2023-05-10T11:05:43;2.33;;;1.45;;
59434;SDS011;45241;49.768;8.636;2023-05-10T11:08:26;1.98;;;1.50;;
59434;SDS011;45241;49.768;8.636;2023-05-10T11:16:09;2.75;;;1.30;;
59434;SDS011;45241;49.768;8.636;2023-05-10T11:18:35;1.67;;;1.25;;
59434;SDS011;45241;49.768;8.636;2023-05-10T11:21:02;2.03;;;0.75;;
59434;SDS011;45241;49.768;8.636;2023-05-10T11:23:33;1.70;;;0.45;;
59434;SDS011;45241;49.768;8.636;2023-05-10T11:26:12;1.42;;;0.43;;
59434;SDS011;45241;49.768;8.636;2023-05-10T11:28:45;1.63;;;0.60;;
59434;SDS011;45241;49.768;8.636;2023-05-10T11:31:15;40.25;;;3.17;;
59434;SDS011;45241;49.768;8.636;2023-05-10T11:33:51;1.08;;;0.43;;
59434;SDS011;45241;49.768;8.636;2023-05-10T11:36:21;0.77;;;0.40;;
59434;SDS011;45241;49.768;8.636;2023-05-10T11:38:49;19.90;;;1.33;;
59434;SDS011;45241;49.768;8.636;2023-05-10T11:41:15;2.25;;;0.60;;
59434;SDS011;45241;49.768;8.636;2023-05-10T11:43:42;0.93;;;0.40;;
59434;SDS011;45241;49.768;8.636;2023-05-10T11:46:08;1.13;;;0.50;;
59434;SDS011;45241;49.768;8.636;2023-05-10T11:48:36;3.00;;;0.60;;
59434;SDS011;45241;49.768;8.636;2023-05-10T11:51:03;3.03;;;0.63;;
59434;SDS011;45241;49.768;8.636;2023-05-10T11:53:32;1.25;;;0.60;;
59434;SDS011;45241;49.768;8.636;2023-05-10T11:56:07;1.00;;;0.65;;
59434;SDS011;45241;49.768;8.636;2023-05-10T11:58:34;1.35;;;0.80;;
59434;SDS011;45241;49.768;8.636;2023-05-10T12:01:00;3.70;;;0.80;;
59434;SDS011;45241;49.768;8.636;2023-05-10T12:03:26;1.75;;;0.93;;
59434;SDS011;45241;49.768;8.636;2023-05-10T12:05:53;2.80;;;0.70;;
59434;SDS011;45241;49.768;8.636;2023-05-10T12:08:22;1.08;;;0.80;;
59434;SDS011;45241;49.768;8.636;2023-05-10T12:10:49;0.75;;;0.73;;
59434;SDS011;45241;49.768;8.636;2023-05-10T12:13:15;3.20;;;0.80;;
59434;SDS011;45241;49.768;8.636;2023-05-10T12:15:40;4.15;;;0.80;;
59434;SDS011;45241;49.768;8.636;2023-05-10T12:18:08;1.63;;;0.88;;
59434;SDS011;45241;49.768;8.636;2023-05-10T12:20:35;0.70;;;0.70;;
59434;SDS011;45241;49.768;8.636;2023-05-10T12:23:01;1.27;;;0.80;;
59434;SDS011;45241;49.768;8.636;2023-05-10T12:25:31;1.88;;;0.77;;
59434;SDS011;45241;49.768;8.636;2023-05-10T12:27:58;0.75;;;0.73;;
59434;SDS011;45241;49.768;8.636;2023-05-10T12:30:27;4.45;;;0.80;;
59434;SDS011;45241;49.768;8.636;2023-05-10T12:32:53;2.83;;;0.70;;
59434;SDS011;45241;49.768;8.636;2023-05-10T12:35:24;3.42;;;0.90;;
59434;SDS011;45241;49.768;8.636;2023-05-10T12:37:52;2.25;;;0.93;;
59434;SDS011;45241;49.768;8.636;2023-05-10T12:40:17;0.85;;;0.70;;
59434;SDS011;45241;49.768;8.636;2023-05-10T12:42:43;1.70;;;0.80;;
59434;SDS011;45241;49.768;8.636;2023-05-10T12:45:10;2.03;;;0.88;;
59434;SDS011;45241;49.768;8.636;2023-05-10T12:47:36;2.20;;;0.90;;
59434;SDS011;45241;49.768;8.636;2023-05-10T12:50:02;1.65;;;0.70;;
59434;SDS011;45241;49.768;8.636;2023-05-10T12:52:28;0.77;;;0.68;;
59434;SDS011;45241;49.768;8.636;2023-05-10T12:54:53;1.25;;;0.80;;
59434;SDS011;45241;49.768;8.636;2023-05-10T12:57:22;2.28;;;0.73;;
59434;SDS011;45241;49.768;8.636;2023-05-10T12:59:48;1.02;;;0.63;;
59434;SDS011;45241;49.768;8.636;2023-05-10T13:02:13;2.22;;;0.80;;
59434;SDS011;45241;49.768;8.636;2023-05-10T13:04:39;5.20;;;0.80;;
59434;SDS011;45241;49.768;8.636;2023-05-10T13:07:08;1.83;;;0.90;;
59434;SDS011;45241;49.768;8.636;2023-05-10T13:09:34;4.43;;;1.27;;
59434;SDS011;45241;49.768;8.636;2023-05-10T13:11:59;2.08;;;1.00;;
59434;SDS011;45241;49.768;8.636;2023-05-10T13:14:25;5.05;;;1.20;;
59434;SDS011;45241;49.768;8.636;2023-05-10T13:16:51;3.20;;;1.08;;
59434;SDS011;45241;49.768;8.636;2023-05-10T13:19:16;5.65;;;1.10;;
59434;SDS011;45241;49.768;8.636;2023-05-10T13:21:42;1.65;;;0.70;;
59434;SDS011;45241;49.768;8.636;2023-05-10T13:24:09;3.53;;;0.93;;
59434;SDS011;45241;49.768;8.636;2023-05-10T13:26:35;3.55;;;0.98;;
59434;SDS011;45241;49.768;8.636;2023-05-10T13:29:01;2.92;;;0.70;;
59434;SDS011;45241;49.768;8.636;2023-05-10T13:31:27;3.25;;;1.20;;
59434;SDS011;45241;49.768;8.636;2023-05-10T13:33:53;3.40;;;0.70;;
59434;SDS011;45241;49.768;8.636;2023-05-10T13:36:18;4.63;;;0.90;;
59434;SDS011;45241;49.768;8.636;2023-05-10T13:38:43;2.95;;;0.63;;
59434;SDS011;45241;49.768;8.636;2023-05-10T13:41:09;2.55;;;0.80;;
59434;SDS011;45241;49.768;8.636;2023-05-10T13:43:35;2.67;;;0.60;;
59434;SDS011;45241;49.768;8.636;2023-05-10T13:46:01;1.50;;;0.68;;
59434;SDS011;45241;49.768;8.636;2023-05-10T13:48:26;1.48;;;0.68;;
59434;SDS011;45241;49.768;8.636;2023-05-10T13:50:51;2.78;;;0.98;;
59434;SDS011;45241;49.768;8.636;2023-05-10T13:53:17;2.03;;;0.73;;
59434;SDS011;45241;49.768;8.636;2023-05-10T13:55:42;2.47;;;0.80;;
59434;SDS011;45241;49.768;8.636;2023-05-10T13:58:07;1.88;;;0.60;;
59434;SDS011;45241;49.768;8.636;2023-05-10T14:00:33;1.88;;;0.73;;
59434;SDS011;45241;49.768;8.636;2023-05-10T14:02:58;2.42;;;0.73;;
59434;SDS011;45241;49.768;8.636;2023-05-10T14:05:24;4.85;;;1.55;;
59434;SDS011;45241;49.768;8.636;2023-05-10T14:07:49;2.13;;;0.80;;
59434;SDS011;45241;49.768;8.636;2023-05-10T14:10:15;2.95;;;0.90;;
59434;SDS011;45241;49.768;8.636;2023-05-10T14:12:41;1.77;;;0.70;;
59434;SDS011;45241;49.768;8.636;2023-05-10T14:15:06;2.58;;;0.80;;
59434;SDS011;45241;49.768;8.636;2023-05-10T14:17:32;2.88;;;0.70;;
59434;SDS011;45241;49.768;8.636;2023-05-10T14:19:57;5.15;;;0.80;;
59434;SDS011;45241;49.768;8.636;2023-05-10T14:22:23;1.38;;;0.55;;
59434;SDS011;45241;49.768;8.636;2023-05-10T14:24:48;2.28;;;0.70;;
59434;SDS011;45241;49.768;8.636;2023-05-10T14:27:15;3.03;;;1.10;;
59434;SDS011;45241;49.768;8.636;2023-05-10T14:29:40;1.55;;;0.90;;
59434;SDS011;45241;49.768;8.636;2023-05-10T14:32:06;2.38;;;0.82;;
59434;SDS011;45241;49.768;8.636;2023-05-10T14:34:32;2.20;;;0.70;;
59434;SDS011;45241;49.768;8.636;2023-05-10T14:36:58;6.43;;;0.70;;
59434;SDS011;45241;49.768;8.636;2023-05-10T14:39:23;2.10;;;1.08;;
59434;SDS011;45241;49.768;8.636;2023-05-10T14:41:49;6.28;;;1.15;;
59434;SDS011;45241;49.768;8.636;2023-05-10T14:44:16;1.13;;;0.60;;
59434;SDS011;45241;49.768;8.636;2023-05-10T14:46:41;2.42;;;0.98;;
59434;SDS011;45241;49.768;8.636;2023-05-10T14:49:07;4.55;;;1.25;;
59434;SDS011;45241;49.768;8.636;2023-05-10T14:51:32;2.17;;;1.00;;
59434;SDS011;45241;49.768;8.636;2023-05-10T14:53:57;2.00;;;0.90;;
59434;SDS011;45241;49.768;8.636;2023-05-10T14:56:23;3.45;;;0.82;;
59434;SDS011;45241;49.768;8.636;2023-05-10T14:58:49;1.73;;;0.70;;
59434;SDS011;45241;49.768;8.636;2023-05-10T15:01:14;2.47;;;0.90;;
59434;SDS011;45241;49.768;8.636;2023-05-10T15:03:40;1.80;;;0.63;;
59434;SDS011;45241;49.768;8.636;2023-05-10T15:06:05;5.63;;;0.60;;
59434;SDS011;45241;49.768;8.636;2023-05-10T15:08:31;4.00;;;0.90;;
59434;SDS011;45241;49.768;8.636;2023-05-10T15:10:56;4.15;;;0.52;;
59434;SDS011;45241;49.768;8.636;2023-05-10T15:13:21;1.58;;;0.70;;
59434;SDS011;45241;49.768;8.636;2023-05-10T15:15:47;1.02;;;0.65;;
59434;SDS011;45241;49.768;8.636;2023-05-10T15:18:12;3.15;;;0.70;;
59434;SDS011;45241;49.768;8.636;2023-05-10T15:20:37;4.10;;;0.80;;
59434;SDS011;45241;49.768;8.636;2023-05-10T15:23:03;1.58;;;0.60;;
59434;SDS011;45241;49.768;8.636;2023-05-10T15:25:28;2.75;;;0.65;;
59434;SDS011;45241;49.768;8.636;2023-05-10T15:27:54;3.60;;;0.73;;